Du har inga inställningar för hoppväder.nu

Hoppväder.nu

Senast uppdaterat 10:02

UTC-tid

2020-08-06 kl. 08:02


Sol och måne

Solen går upp 5:09 och går ner 21:49 (beräknade cirkatider)
Nästa fullmåne blir om 27 dagar (2020-09-02)

METAR

ESMQ (Kalmar)
(12 minuter sedan)
ESMQ 060750Z 18008KT CAVOK 21/16 Q1022=



ESMX (Växjö)
(12 minuter sedan)
ESMX 060750Z AUTO 19007KT 9999 NCD 22/16 Q1022=



ESMK (Ronneby)
(12 minuter sedan)
ESMK 060750Z VRB03KT CAVOK 26/14 Q1022=



ESSV (Visby)
(12 minuter sedan)
ESSV 060750Z 24012KT CAVOK 20/14 Q1022=






TAF

ESMQ (Kalmar)
(152 minuter sedan)
ESMQ 060530Z 0606/0615 19012KT CAVOK=



ESMX (Växjö)
ESMX



ESMK (Ronneby)
(99 minuter sedan)
ESMK 060623Z 0607/0615 16008KT CAVOK=



ESSV (Visby)
(152 minuter sedan)
ESSV 060530Z 0606/0615 22012KT CAVOK=





Kodnycklar till TAF och METAR






LHP

(Borglanda är område se22a i Delområde 2)

Översikt

ÖVERSIKT FÖR OMRÅDE se2 UTFÄRDAD 060724

GÄLLANDE DEN 6 AUGUSTI 2020 MELLAN 08 OCH 16 UTC


Väderöversikt

En högtrycksrygg förstärks över södra Sverige.

Sikt under 5 kilometer eller molnbas under 1000 fot
08-12UTC: Hela området utom se22


Måttlig eller svår isbildning
Väntas inte förekomma under perioden

Måttlig eller svår turbulens
Väntas inte förekomma under perioden

Delområde 2

PROGNOS FÖR OMRÅDE se22 UTFÄRDAD 060724
GÄLLANDE DEN 6 AUGUSTI 2020 MELLAN 08 OCH 16 UTC

Måttlig eller svår turbulens
08-16UTC: I hela området: Väntas inte förekomma under perioden

Måttlig eller svår isbildning
08-16UTC: I hela området: Väntas inte förekomma under perioden

Sikt/Väder/Moln
08-16UTC: I hela området: Sikt >8km. Molnbas >2000ft.

Molnöversida
08-16UTC: I hela området: Ingen prognos

CB/TCU Moln
08-16UTC: I hela området: Väntas inte förekomma under perioden

Nollgradersisoterm
08-10UTC: Noll grader FL110 - > FL125.
10-12UTC: Noll grader FL115 - > FL125.
12-16UTC: Noll grader FL110 - > FL125.

Vind vid marken
08-10UTC: Område se22h: SV-V/2-6 knop, byar upp till 17 knop.
Område se22g: S-SV/1-5 knop.
Område se22l: S-SV/9-13 knop.
Område se22b: S-SV/4-15 knop, byar upp till 20 knop.
Område se22k: S-SV/3-13 knop, byar upp till 17 knop.
Område se22j: S-SV/2-5 knop, byar upp till 16 knop.
Område se22d: S-SV/10-15 knop.
Område se22a: SV/2-12 knop, byar upp till 18 knop.
Område se22c: S-SV/4-15 knop, byar upp till 19 knop.
Område se22f: SV-V/4-7 knop, byar upp till 18 knop.
Område se22e: SV-V/3-8 knop, byar upp till 18 knop.
Område se22i: S-SV/1-4 knop, byar upp till 14 knop.

10-12UTC: Område se22f: SV-V/4-8 knop, byar upp till 21 knop.
Område se22l: S-SV/7-11 knop.
Område se22a: SV/2-13 knop, byar upp till 20 knop.
Område se22g: S-SV/1-7 knop, byar upp till 17 knop.
Område se22j: S-SV/4-6 knop, byar upp till 19 knop.
Område se22i: S/1-8 knop, byar upp till 21 knop.
Område se22b: S-SV/1-19 knop, byar upp till 24 knop.
Område se22k: S-SV/3-13 knop, byar upp till 19 knop.
Område se22d: S-SV/9-15 knop.
Område se22c: S-SV/4-17 knop, byar upp till 22 knop.
Område se22h: SV/0-5 knop, byar upp till 18 knop.
Område se22e: SV-V/3-10 knop, byar upp till 22 knop.

12-14UTC: Område se22l: S/3-9 knop.
Område se22j: S-SV/5-7 knop, byar upp till 21 knop.
Område se22e: SV/2-9 knop, byar upp till 21 knop.
Område se22d: S-SV/6-15 knop, byar upp till 18 knop.
Område se22c: S-SV/4-18 knop, byar upp till 25 knop.
Område se22a: SV/2-16 knop, byar upp till 21 knop.
Område se22g: S-SV/1-7 knop, byar upp till 16 knop.
Område se22f: SV-V/3-8 knop, byar upp till 22 knop.
Område se22h: SV/1-8 knop, byar upp till 21 knop.
Område se22k: S/2-13 knop, byar upp till 20 knop.
Område se22i: S/1-8 knop, byar upp till 22 knop.

12-16UTC: Område se22b: S-SV/1-20 knop, byar upp till 27 knop.

14-16UTC: Område se22a: SV/1-15 knop, byar upp till 20 knop.
Område se22f: SV-V/3-8 knop, byar upp till 21 knop.
Område se22i: SO-S/1-9 knop, byar upp till 20 knop.
Område se22g: S/0-11 knop, byar upp till 17 knop.
Område se22j: S-SV/4-6 knop, byar upp till 19 knop.
Område se22c: S-SV/4-19 knop, byar upp till 25 knop.
Område se22e: SV/1-8 knop, byar upp till 19 knop.
Område se22k: S/3-13 knop, byar upp till 20 knop.
Område se22d: S-SV/3-14 knop, byar upp till 18 knop.
Område se22h: S-SV/2-12 knop, byar upp till 20 knop.
Område se22l: SO-S/2-8 knop.


Genomsnittlig vind och temperatur för området
2000ft:
08-10UTC: 240/13kt +18.
10-12UTC: 230/11kt +19.
12-14UTC: 220/11kt +19.
14-16UTC: 220/9kt +20.

FL50:
08-10UTC: 250/16kt +11.
10-12UTC: 240/14kt +11.
12-14UTC: 240/10kt +12.
14-16UTC: 240/8kt +12.

FL100:
08-10UTC: 250/14kt +2.
10-12UTC: 250/13kt +1.
12-14UTC: 250/12kt +1.
14-16UTC: 250/11kt +1.

Lägsta QNH
1021 hPa.

OBS! endast utbredd måttlig eller svår isbildning och turbulens prognostiseras i LLF.
Avsaknad av isbildning och turbulens i prognosen utesluter inte förekomst av lätt isbildning och turbulens.
För indikation på lätt isbildning, var vänlig kontrollera om prognosen för molntopp ligger högre än nollgradersisotermen.
Förekomst av TCU eller CB medför alltid en risk för måttlig eller svår isbildning och turbulens även om det inte framgår explicit av prognosen.







Spotting

Hur fungerar spotthjälpen och Vindkartan?

Markvind är ca 1-6 m/s med byar på 9 m/s.
Vind på 600 m ca 7 m/s.
Vind på 1500 m ca 8 m/s.
Vind på 3000 m ca 7 m/s.
Filip Helge flyger ca 34 m/s över marken på finalen.
Du driver ca 324 m bakåt i frifall. (432 m)
Lämplig spot är 1 sekunder eller 34 m efter gropen.
(4 s eller 136 m)
För små grupper eller ensamhoppare bör man vänta 4-6 sekunder mellan grupperna.
För större grupper bör man vänta 9-11 sekunder mellan grupperna.


Vindkartan

Senast uppdaterad 10:02




All data kommer från LFV.se